sensor_id;sensor_type;location;lat;lon;timestamp;temperature;humidity
12438;DHT22;6283;51.330;12.374;2024-03-06T00:02:08;6.10;1.00
12438;DHT22;6283;51.330;12.374;2024-03-06T00:04:34;6.00;1.00
12438;DHT22;6283;51.330;12.374;2024-03-06T00:07:00;6.10;1.00
12438;DHT22;6283;51.330;12.374;2024-03-06T00:09:26;6.00;1.00
12438;DHT22;6283;51.330;12.374;2024-03-06T00:11:57;6.00;1.00
12438;DHT22;6283;51.330;12.374;2024-03-06T00:14:23;6.00;1.00
12438;DHT22;6283;51.330;12.374;2024-03-06T00:16:50;5.90;1.00
12438;DHT22;6283;51.330;12.374;2024-03-06T00:19:19;6.20;1.00
12438;DHT22;6283;51.330;12.374;2024-03-06T00:21:45;6.10;1.00
12438;DHT22;6283;51.330;12.374;2024-03-06T00:24:14;6.00;1.00
12438;DHT22;6283;51.330;12.374;2024-03-06T00:26:44;6.10;1.00
12438;DHT22;6283;51.330;12.374;2024-03-06T00:29:10;6.00;1.00
12438;DHT22;6283;51.330;12.374;2024-03-06T00:31:36;5.90;1.00
12438;DHT22;6283;51.330;12.374;2024-03-06T00:34:02;5.80;1.00
12438;DHT22;6283;51.330;12.374;2024-03-06T00:36:28;6.10;1.00
12438;DHT22;6283;51.330;12.374;2024-03-06T00:38:53;6.00;1.00
12438;DHT22;6283;51.330;12.374;2024-03-06T00:41:19;5.90;1.00
12438;DHT22;6283;51.330;12.374;2024-03-06T00:43:45;6.10;1.00
12438;DHT22;6283;51.330;12.374;2024-03-06T00:46:11;6.00;1.00
12438;DHT22;6283;51.330;12.374;2024-03-06T00:48:37;5.90;1.00
12438;DHT22;6283;51.330;12.374;2024-03-06T00:51:05;6.30;1.00
12438;DHT22;6283;51.330;12.374;2024-03-06T00:53:32;5.90;1.00
12438;DHT22;6283;51.330;12.374;2024-03-06T00:55:58;5.80;1.00
12438;DHT22;6283;51.330;12.374;2024-03-06T01:15:14;5.80;1.00
12438;DHT22;6283;51.330;12.374;2024-03-06T01:24:51;5.50;1.00
12438;DHT22;6283;51.330;12.374;2024-03-06T01:27:17;5.50;1.00
12438;DHT22;6283;51.330;12.374;2024-03-06T01:29:42;5.40;1.00
12438;DHT22;6283;51.330;12.374;2024-03-06T01:32:08;5.30;1.00
12438;DHT22;6283;51.330;12.374;2024-03-06T01:34:35;5.30;1.00
12438;DHT22;6283;51.330;12.374;2024-03-06T01:37:01;5.30;1.00
12438;DHT22;6283;51.330;12.374;2024-03-06T01:39:27;5.20;1.00
12438;DHT22;6283;51.330;12.374;2024-03-06T01:41:52;5.00;1.00
12438;DHT22;6283;51.330;12.374;2024-03-06T01:44:19;5.20;1.00
12438;DHT22;6283;51.330;12.374;2024-03-06T01:46:45;5.00;1.00
12438;DHT22;6283;51.330;12.374;2024-03-06T01:49:12;5.20;1.00
12438;DHT22;6283;51.330;12.374;2024-03-06T01:51:41;5.10;1.00
12438;DHT22;6283;51.330;12.374;2024-03-06T01:54:08;4.90;1.00
12438;DHT22;6283;51.330;12.374;2024-03-06T01:56:35;5.00;1.00
12438;DHT22;6283;51.330;12.374;2024-03-06T01:59:02;4.80;1.00
12438;DHT22;6283;51.330;12.374;2024-03-06T02:01:29;4.80;1.00
12438;DHT22;6283;51.330;12.374;2024-03-06T02:03:56;5.00;1.00
12438;DHT22;6283;51.330;12.374;2024-03-06T02:06:22;4.90;1.00
12438;DHT22;6283;51.330;12.374;2024-03-06T02:08:48;4.50;1.00
12438;DHT22;6283;51.330;12.374;2024-03-06T02:11:13;4.60;1.00
12438;DHT22;6283;51.330;12.374;2024-03-06T02:13:42;4.60;1.00
12438;DHT22;6283;51.330;12.374;2024-03-06T02:16:10;4.60;1.00
12438;DHT22;6283;51.330;12.374;2024-03-06T02:18:36;4.50;1.00
12438;DHT22;6283;51.330;12.374;2024-03-06T02:21:03;4.50;1.00
12438;DHT22;6283;51.330;12.374;2024-03-06T02:23:30;4.50;1.00
12438;DHT22;6283;51.330;12.374;2024-03-06T02:25:56;4.60;1.00
12438;DHT22;6283;51.330;12.374;2024-03-06T02:28:21;4.40;1.00
12438;DHT22;6283;51.330;12.374;2024-03-06T02:30:50;4.50;1.00
12438;DHT22;6283;51.330;12.374;2024-03-06T02:33:16;4.50;1.00
12438;DHT22;6283;51.330;12.374;2024-03-06T02:35:43;4.60;1.00
12438;DHT22;6283;51.330;12.374;2024-03-06T02:38:09;4.40;1.00
12438;DHT22;6283;51.330;12.374;2024-03-06T02:40:35;4.50;1.00
12438;DHT22;6283;51.330;12.374;2024-03-06T02:43:01;4.30;1.00
12438;DHT22;6283;51.330;12.374;2024-03-06T02:45:26;4.40;1.00
12438;DHT22;6283;51.330;12.374;2024-03-06T02:47:52;4.50;1.00
12438;DHT22;6283;51.330;12.374;2024-03-06T02:50:17;4.60;1.00
12438;DHT22;6283;51.330;12.374;2024-03-06T02:52:43;4.40;1.00
12438;DHT22;6283;51.330;12.374;2024-03-06T02:55:09;4.40;1.00
12438;DHT22;6283;51.330;12.374;2024-03-06T02:57:35;4.40;1.00
12438;DHT22;6283;51.330;12.374;2024-03-06T03:00:00;4.40;1.00
12438;DHT22;6283;51.330;12.374;2024-03-06T03:02:26;4.40;1.00
12438;DHT22;6283;51.330;12.374;2024-03-06T03:04:52;4.30;1.00
12438;DHT22;6283;51.330;12.374;2024-03-06T03:07:18;4.20;1.00
12438;DHT22;6283;51.330;12.374;2024-03-06T03:09:47;4.40;1.00
12438;DHT22;6283;51.330;12.374;2024-03-06T03:12:13;4.20;1.00
12438;DHT22;6283;51.330;12.374;2024-03-06T03:14:41;4.30;1.00
12438;DHT22;6283;51.330;12.374;2024-03-06T03:17:09;4.20;1.00
12438;DHT22;6283;51.330;12.374;2024-03-06T03:19:34;4.30;1.00
12438;DHT22;6283;51.330;12.374;2024-03-06T03:22:00;4.10;1.00
12438;DHT22;6283;51.330;12.374;2024-03-06T03:24:29;4.30;1.00
12438;DHT22;6283;51.330;12.374;2024-03-06T03:26:55;4.20;1.00
12438;DHT22;6283;51.330;12.374;2024-03-06T03:29:21;4.20;1.50
12438;DHT22;6283;51.330;12.374;2024-03-06T03:31:47;4.20;1.00
12438;DHT22;6283;51.330;12.374;2024-03-06T03:34:12;4.10;1.00
12438;DHT22;6283;51.330;12.374;2024-03-06T03:36:42;4.10;1.00
12438;DHT22;6283;51.330;12.374;2024-03-06T03:39:10;4.10;6.90
12438;DHT22;6283;51.330;12.374;2024-03-06T03:41:48;4.10;1.00
12438;DHT22;6283;51.330;12.374;2024-03-06T03:44:17;4.20;24.80
12438;DHT22;6283;51.330;12.374;2024-03-06T03:46:44;3.90;9.90
12438;DHT22;6283;51.330;12.374;2024-03-06T03:49:11;4.20;1.00
12438;DHT22;6283;51.330;12.374;2024-03-06T03:51:37;4.00;2.70
12438;DHT22;6283;51.330;12.374;2024-03-06T03:54:04;3.90;6.20
12438;DHT22;6283;51.330;12.374;2024-03-06T03:56:30;3.80;6.20
12438;DHT22;6283;51.330;12.374;2024-03-06T03:58:56;4.00;20.50
12438;DHT22;6283;51.330;12.374;2024-03-06T04:01:23;3.90;91.00
12438;DHT22;6283;51.330;12.374;2024-03-06T04:03:49;4.10;17.30
12438;DHT22;6283;51.330;12.374;2024-03-06T04:06:16;3.90;2.30
12438;DHT22;6283;51.330;12.374;2024-03-06T04:08:41;3.90;36.00
12438;DHT22;6283;51.330;12.374;2024-03-06T04:11:07;3.90;1.00
12438;DHT22;6283;51.330;12.374;2024-03-06T04:13:37;4.00;28.30
12438;DHT22;6283;51.330;12.374;2024-03-06T04:16:03;3.90;86.00
12438;DHT22;6283;51.330;12.374;2024-03-06T04:18:30;3.70;1.00
12438;DHT22;6283;51.330;12.374;2024-03-06T04:21:05;4.00;1.00
12438;DHT22;6283;51.330;12.374;2024-03-06T04:23:31;3.90;1.00
12438;DHT22;6283;51.330;12.374;2024-03-06T04:25:56;3.90;36.80
12438;DHT22;6283;51.330;12.374;2024-03-06T04:28:22;4.00;56.40
12438;DHT22;6283;51.330;12.374;2024-03-06T04:30:48;3.90;33.80
12438;DHT22;6283;51.330;12.374;2024-03-06T04:33:13;3.80;99.90
12438;DHT22;6283;51.330;12.374;2024-03-06T04:35:41;3.90;99.90
12438;DHT22;6283;51.330;12.374;2024-03-06T04:38:06;3.90;82.20
12438;DHT22;6283;51.330;12.374;2024-03-06T04:40:33;3.70;78.80
12438;DHT22;6283;51.330;12.374;2024-03-06T04:43:00;3.70;99.90
12438;DHT22;6283;51.330;12.374;2024-03-06T04:45:25;3.50;29.80
12438;DHT22;6283;51.330;12.374;2024-03-06T04:47:51;3.40;54.50
12438;DHT22;6283;51.330;12.374;2024-03-06T04:50:17;3.70;99.90
12438;DHT22;6283;51.330;12.374;2024-03-06T04:52:43;3.70;95.90
12438;DHT22;6283;51.330;12.374;2024-03-06T04:55:10;3.80;62.30
12438;DHT22;6283;51.330;12.374;2024-03-06T04:57:37;3.70;99.90
12438;DHT22;6283;51.330;12.374;2024-03-06T05:00:03;3.40;48.80
12438;DHT22;6283;51.330;12.374;2024-03-06T05:02:32;3.60;99.90
12438;DHT22;6283;51.330;12.374;2024-03-06T05:05:00;3.60;14.00
12438;DHT22;6283;51.330;12.374;2024-03-06T05:07:27;3.40;99.90
12438;DHT22;6283;51.330;12.374;2024-03-06T05:09:53;3.70;99.90
12438;DHT22;6283;51.330;12.374;2024-03-06T05:12:18;3.30;99.90
12438;DHT22;6283;51.330;12.374;2024-03-06T05:14:44;3.40;99.90
12438;DHT22;6283;51.330;12.374;2024-03-06T05:17:10;3.40;99.90
12438;DHT22;6283;51.330;12.374;2024-03-06T05:19:36;3.40;99.90
12438;DHT22;6283;51.330;12.374;2024-03-06T05:22:02;3.20;99.90
12438;DHT22;6283;51.330;12.374;2024-03-06T05:24:29;3.50;99.90
12438;DHT22;6283;51.330;12.374;2024-03-06T05:26:54;3.40;99.90
12438;DHT22;6283;51.330;12.374;2024-03-06T05:29:20;3.20;99.90
12438;DHT22;6283;51.330;12.374;2024-03-06T05:31:46;3.10;99.90
12438;DHT22;6283;51.330;12.374;2024-03-06T05:34:11;3.20;99.90
12438;DHT22;6283;51.330;12.374;2024-03-06T05:36:37;3.20;99.90
12438;DHT22;6283;51.330;12.374;2024-03-06T05:39:03;3.10;99.90
12438;DHT22;6283;51.330;12.374;2024-03-06T05:41:38;3.20;99.90
12438;DHT22;6283;51.330;12.374;2024-03-06T05:44:05;3.10;99.90
12438;DHT22;6283;51.330;12.374;2024-03-06T05:46:30;3.40;99.90
12438;DHT22;6283;51.330;12.374;2024-03-06T05:48:56;3.10;99.90
12438;DHT22;6283;51.330;12.374;2024-03-06T05:51:21;3.20;99.90
12438;DHT22;6283;51.330;12.374;2024-03-06T05:53:47;3.20;99.90
12438;DHT22;6283;51.330;12.374;2024-03-06T05:56:13;3.10;99.90
12438;DHT22;6283;51.330;12.374;2024-03-06T05:58:39;3.50;99.90
12438;DHT22;6283;51.330;12.374;2024-03-06T06:01:04;3.40;99.90
12438;DHT22;6283;51.330;12.374;2024-03-06T06:03:30;3.60;99.90
12438;DHT22;6283;51.330;12.374;2024-03-06T06:05:56;3.20;99.90
12438;DHT22;6283;51.330;12.374;2024-03-06T06:08:22;3.40;99.90
12438;DHT22;6283;51.330;12.374;2024-03-06T06:10:48;3.40;99.90
12438;DHT22;6283;51.330;12.374;2024-03-06T06:13:13;3.20;99.90
12438;DHT22;6283;51.330;12.374;2024-03-06T06:15:40;3.20;99.90
12438;DHT22;6283;51.330;12.374;2024-03-06T06:18:06;3.40;99.90
12438;DHT22;6283;51.330;12.374;2024-03-06T06:20:32;3.30;99.90
12438;DHT22;6283;51.330;12.374;2024-03-06T06:22:58;3.30;14.20
12438;DHT22;6283;51.330;12.374;2024-03-06T06:25:24;3.20;99.90
12438;DHT22;6283;51.330;12.374;2024-03-06T06:27:49;3.10;99.90
12438;DHT22;6283;51.330;12.374;2024-03-06T06:30:16;3.20;60.70
12438;DHT22;6283;51.330;12.374;2024-03-06T06:32:42;3.40;99.90
12438;DHT22;6283;51.330;12.374;2024-03-06T06:35:09;3.10;99.90
12438;DHT22;6283;51.330;12.374;2024-03-06T06:37:35;3.10;99.90
12438;DHT22;6283;51.330;12.374;2024-03-06T06:40:01;3.10;99.90
12438;DHT22;6283;51.330;12.374;2024-03-06T06:42:32;3.10;99.90
12438;DHT22;6283;51.330;12.374;2024-03-06T06:44:59;3.50;99.90
12438;DHT22;6283;51.330;12.374;2024-03-06T06:47:25;3.40;99.90
12438;DHT22;6283;51.330;12.374;2024-03-06T06:49:50;3.30;99.90
12438;DHT22;6283;51.330;12.374;2024-03-06T06:52:16;3.40;99.90
12438;DHT22;6283;51.330;12.374;2024-03-06T06:54:42;3.50;99.90
12438;DHT22;6283;51.330;12.374;2024-03-06T06:57:07;3.50;99.90
12438;DHT22;6283;51.330;12.374;2024-03-06T06:59:34;3.30;99.90
12438;DHT22;6283;51.330;12.374;2024-03-06T07:02:00;3.50;99.90
12438;DHT22;6283;51.330;12.374;2024-03-06T07:04:26;3.40;99.90
12438;DHT22;6283;51.330;12.374;2024-03-06T07:06:51;3.40;99.90
12438;DHT22;6283;51.330;12.374;2024-03-06T07:09:17;3.70;85.00
12438;DHT22;6283;51.330;12.374;2024-03-06T07:11:44;3.50;77.10
12438;DHT22;6283;51.330;12.374;2024-03-06T07:14:11;3.60;16.00
12438;DHT22;6283;51.330;12.374;2024-03-06T07:16:46;3.80;53.60
12438;DHT22;6283;51.330;12.374;2024-03-06T07:19:12;3.60;40.10
12438;DHT22;6283;51.330;12.374;2024-03-06T07:21:38;3.90;23.00
12438;DHT22;6283;51.330;12.374;2024-03-06T07:24:04;3.80;1.00
12438;DHT22;6283;51.330;12.374;2024-03-06T07:26:33;3.90;87.30
12438;DHT22;6283;51.330;12.374;2024-03-06T07:28:59;4.10;1.00
12438;DHT22;6283;51.330;12.374;2024-03-06T07:31:25;4.00;1.00
12438;DHT22;6283;51.330;12.374;2024-03-06T07:33:51;4.10;1.00
12438;DHT22;6283;51.330;12.374;2024-03-06T07:36:17;4.10;1.00
12438;DHT22;6283;51.330;12.374;2024-03-06T07:38:43;4.10;1.00
12438;DHT22;6283;51.330;12.374;2024-03-06T07:41:09;4.10;1.00
12438;DHT22;6283;51.330;12.374;2024-03-06T07:43:36;4.20;1.00
12438;DHT22;6283;51.330;12.374;2024-03-06T07:46:01;4.20;1.00
12438;DHT22;6283;51.330;12.374;2024-03-06T07:48:27;4.10;1.00
12438;DHT22;6283;51.330;12.374;2024-03-06T07:50:53;4.30;1.00
12438;DHT22;6283;51.330;12.374;2024-03-06T07:53:18;4.40;1.00
12438;DHT22;6283;51.330;12.374;2024-03-06T07:55:44;4.50;1.00
12438;DHT22;6283;51.330;12.374;2024-03-06T07:58:09;4.50;1.00
12438;DHT22;6283;51.330;12.374;2024-03-06T08:00:36;4.50;1.00
12438;DHT22;6283;51.330;12.374;2024-03-06T08:03:02;4.80;1.00
12438;DHT22;6283;51.330;12.374;2024-03-06T08:05:28;4.60;1.00
12438;DHT22;6283;51.330;12.374;2024-03-06T08:07:54;4.70;1.00
12438;DHT22;6283;51.330;12.374;2024-03-06T08:10:19;4.80;1.00
12438;DHT22;6283;51.330;12.374;2024-03-06T08:12:45;4.90;1.00
12438;DHT22;6283;51.330;12.374;2024-03-06T08:15:14;4.80;1.00
12438;DHT22;6283;51.330;12.374;2024-03-06T08:17:41;4.80;1.00
12438;DHT22;6283;51.330;12.374;2024-03-06T08:20:09;5.20;1.00
12438;DHT22;6283;51.330;12.374;2024-03-06T08:22:37;5.30;1.00
12438;DHT22;6283;51.330;12.374;2024-03-06T08:25:07;5.20;1.00
12438;DHT22;6283;51.330;12.374;2024-03-06T08:27:34;5.20;1.00
12438;DHT22;6283;51.330;12.374;2024-03-06T08:30:00;5.30;1.00
12438;DHT22;6283;51.330;12.374;2024-03-06T08:32:26;5.50;1.00
12438;DHT22;6283;51.330;12.374;2024-03-06T08:34:53;5.60;1.00
12438;DHT22;6283;51.330;12.374;2024-03-06T08:37:18;5.60;1.00
12438;DHT22;6283;51.330;12.374;2024-03-06T08:39:44;5.80;1.00
12438;DHT22;6283;51.330;12.374;2024-03-06T08:42:14;5.60;1.00
12438;DHT22;6283;51.330;12.374;2024-03-06T08:44:44;6.00;1.00
12438;DHT22;6283;51.330;12.374;2024-03-06T08:47:10;5.70;1.00
12438;DHT22;6283;51.330;12.374;2024-03-06T08:49:35;6.00;1.00
12438;DHT22;6283;51.330;12.374;2024-03-06T08:52:01;6.30;1.00
12438;DHT22;6283;51.330;12.374;2024-03-06T08:54:26;6.00;1.00
12438;DHT22;6283;51.330;12.374;2024-03-06T08:56:52;6.20;1.00
12438;DHT22;6283;51.330;12.374;2024-03-06T08:59:23;6.40;1.00
12438;DHT22;6283;51.330;12.374;2024-03-06T09:01:52;6.20;1.00
12438;DHT22;6283;51.330;12.374;2024-03-06T09:04:17;6.50;1.00
12438;DHT22;6283;51.330;12.374;2024-03-06T09:06:43;6.50;1.00
12438;DHT22;6283;51.330;12.374;2024-03-06T09:09:09;6.70;1.00
12438;DHT22;6283;51.330;12.374;2024-03-06T09:11:35;6.70;1.00
12438;DHT22;6283;51.330;12.374;2024-03-06T09:14:00;6.60;1.00
12438;DHT22;6283;51.330;12.374;2024-03-06T09:16:26;6.70;1.00
12438;DHT22;6283;51.330;12.374;2024-03-06T09:18:52;7.00;1.00
12438;DHT22;6283;51.330;12.374;2024-03-06T09:21:18;7.00;1.00
12438;DHT22;6283;51.330;12.374;2024-03-06T09:23:45;7.00;1.00
12438;DHT22;6283;51.330;12.374;2024-03-06T09:26:11;7.10;1.00
12438;DHT22;6283;51.330;12.374;2024-03-06T09:28:36;7.00;1.00
12438;DHT22;6283;51.330;12.374;2024-03-06T09:31:04;7.10;1.00
12438;DHT22;6283;51.330;12.374;2024-03-06T09:33:30;7.20;1.00
12438;DHT22;6283;51.330;12.374;2024-03-06T09:35:55;7.20;1.00
12438;DHT22;6283;51.330;12.374;2024-03-06T09:38:22;7.50;1.00
12438;DHT22;6283;51.330;12.374;2024-03-06T09:40:48;7.50;1.00
12438;DHT22;6283;51.330;12.374;2024-03-06T09:43:14;7.60;1.00
12438;DHT22;6283;51.330;12.374;2024-03-06T09:45:40;7.60;1.00
12438;DHT22;6283;51.330;12.374;2024-03-06T09:48:06;7.50;1.00
12438;DHT22;6283;51.330;12.374;2024-03-06T09:50:35;7.60;1.00
12438;DHT22;6283;51.330;12.374;2024-03-06T09:53:04;7.70;1.00
12438;DHT22;6283;51.330;12.374;2024-03-06T09:55:32;7.50;1.00
12438;DHT22;6283;51.330;12.374;2024-03-06T09:57:58;7.70;1.00
12438;DHT22;6283;51.330;12.374;2024-03-06T10:00:24;8.00;1.00
12438;DHT22;6283;51.330;12.374;2024-03-06T10:02:58;8.10;1.00
12438;DHT22;6283;51.330;12.374;2024-03-06T10:05:26;8.30;1.00
12438;DHT22;6283;51.330;12.374;2024-03-06T10:07:52;8.00;1.00
12438;DHT22;6283;51.330;12.374;2024-03-06T10:10:20;8.30;1.00
12438;DHT22;6283;51.330;12.374;2024-03-06T10:12:48;8.30;1.00
12438;DHT22;6283;51.330;12.374;2024-03-06T10:15:14;8.40;1.00
12438;DHT22;6283;51.330;12.374;2024-03-06T10:17:40;8.40;1.00
12438;DHT22;6283;51.330;12.374;2024-03-06T10:20:19;8.40;1.00
12438;DHT22;6283;51.330;12.374;2024-03-06T10:22:54;8.50;99.90
12438;DHT22;6283;51.330;12.374;2024-03-06T10:25:23;8.50;1.00
12438;DHT22;6283;51.330;12.374;2024-03-06T10:28:09;8.60;99.90
12438;DHT22;6283;51.330;12.374;2024-03-06T10:30:36;8.70;1.00
12438;DHT22;6283;51.330;12.374;2024-03-06T10:33:03;8.70;1.00
12438;DHT22;6283;51.330;12.374;2024-03-06T10:35:29;8.90;1.00
12438;DHT22;6283;51.330;12.374;2024-03-06T10:37:55;8.80;1.00
12438;DHT22;6283;51.330;12.374;2024-03-06T10:40:23;8.80;1.00
12438;DHT22;6283;51.330;12.374;2024-03-06T10:42:49;8.90;1.00
12438;DHT22;6283;51.330;12.374;2024-03-06T10:45:16;9.10;1.00
12438;DHT22;6283;51.330;12.374;2024-03-06T10:47:45;9.10;1.00
12438;DHT22;6283;51.330;12.374;2024-03-06T10:50:15;9.20;1.00
12438;DHT22;6283;51.330;12.374;2024-03-06T10:52:41;9.30;1.00
12438;DHT22;6283;51.330;12.374;2024-03-06T10:55:08;9.40;1.00
12438;DHT22;6283;51.330;12.374;2024-03-06T10:57:37;9.40;1.00
12438;DHT22;6283;51.330;12.374;2024-03-06T11:00:04;9.60;99.90
12438;DHT22;6283;51.330;12.374;2024-03-06T11:02:31;9.60;99.90
12438;DHT22;6283;51.330;12.374;2024-03-06T11:04:57;9.50;99.90
12438;DHT22;6283;51.330;12.374;2024-03-06T11:07:23;9.50;99.90
12438;DHT22;6283;51.330;12.374;2024-03-06T11:09:50;9.50;99.90
12438;DHT22;6283;51.330;12.374;2024-03-06T11:12:48;9.60;99.90
12438;DHT22;6283;51.330;12.374;2024-03-06T11:15:15;9.70;99.90
12438;DHT22;6283;51.330;12.374;2024-03-06T11:17:42;9.90;99.90
12438;DHT22;6283;51.330;12.374;2024-03-06T11:20:13;10.00;99.90
12438;DHT22;6283;51.330;12.374;2024-03-06T11:30:58;10.30;99.90
12438;DHT22;6283;51.330;12.374;2024-03-06T11:33:34;10.60;99.90
12438;DHT22;6283;51.330;12.374;2024-03-06T11:36:27;10.50;99.90
12438;DHT22;6283;51.330;12.374;2024-03-06T11:38:56;10.90;99.90
12438;DHT22;6283;51.330;12.374;2024-03-06T11:41:23;11.00;99.90
12438;DHT22;6283;51.330;12.374;2024-03-06T11:43:50;11.20;99.90
12438;DHT22;6283;51.330;12.374;2024-03-06T11:46:19;11.30;99.90
12438;DHT22;6283;51.330;12.374;2024-03-06T11:48:55;11.60;99.90
12438;DHT22;6283;51.330;12.374;2024-03-06T11:51:21;11.80;99.90
12438;DHT22;6283;51.330;12.374;2024-03-06T11:53:50;12.00;99.90
12438;DHT22;6283;51.330;12.374;2024-03-06T11:56:17;12.10;1.00
12438;DHT22;6283;51.330;12.374;2024-03-06T11:58:43;12.10;99.90
12438;DHT22;6283;51.330;12.374;2024-03-06T12:01:08;12.10;99.90
12438;DHT22;6283;51.330;12.374;2024-03-06T12:03:34;12.30;99.90
12438;DHT22;6283;51.330;12.374;2024-03-06T12:06:00;12.10;99.90
12438;DHT22;6283;51.330;12.374;2024-03-06T12:08:26;11.90;99.90
12438;DHT22;6283;51.330;12.374;2024-03-06T12:10:51;12.00;99.90
12438;DHT22;6283;51.330;12.374;2024-03-06T12:13:20;12.10;99.90
12438;DHT22;6283;51.330;12.374;2024-03-06T12:15:46;12.30;99.90
12438;DHT22;6283;51.330;12.374;2024-03-06T12:18:13;12.20;99.90
12438;DHT22;6283;51.330;12.374;2024-03-06T12:20:42;12.00;99.90
12438;DHT22;6283;51.330;12.374;2024-03-06T12:23:19;12.10;99.90
12438;DHT22;6283;51.330;12.374;2024-03-06T12:25:46;12.40;99.90
12438;DHT22;6283;51.330;12.374;2024-03-06T12:28:12;12.80;99.90
12438;DHT22;6283;51.330;12.374;2024-03-06T12:30:44;13.10;99.90
12438;DHT22;6283;51.330;12.374;2024-03-06T12:33:10;13.20;99.90
12438;DHT22;6283;51.330;12.374;2024-03-06T12:35:40;13.50;99.90
12438;DHT22;6283;51.330;12.374;2024-03-06T12:38:15;13.70;99.90
12438;DHT22;6283;51.330;12.374;2024-03-06T12:40:42;14.10;99.90
12438;DHT22;6283;51.330;12.374;2024-03-06T12:43:08;14.50;99.90
12438;DHT22;6283;51.330;12.374;2024-03-06T12:45:34;14.50;99.90
12438;DHT22;6283;51.330;12.374;2024-03-06T12:48:00;14.50;99.90
12438;DHT22;6283;51.330;12.374;2024-03-06T12:50:26;14.50;99.90
12438;DHT22;6283;51.330;12.374;2024-03-06T12:52:52;14.50;99.90
12438;DHT22;6283;51.330;12.374;2024-03-06T12:55:18;14.80;99.90
12438;DHT22;6283;51.330;12.374;2024-03-06T12:57:45;14.60;99.90
12438;DHT22;6283;51.330;12.374;2024-03-06T13:00:11;14.50;99.90
12438;DHT22;6283;51.330;12.374;2024-03-06T13:02:42;14.00;99.90
12438;DHT22;6283;51.330;12.374;2024-03-06T13:05:09;13.60;99.90
12438;DHT22;6283;51.330;12.374;2024-03-06T13:07:35;13.20;99.90
12438;DHT22;6283;51.330;12.374;2024-03-06T13:10:04;13.40;99.90
12438;DHT22;6283;51.330;12.374;2024-03-06T13:12:30;13.70;99.90
12438;DHT22;6283;51.330;12.374;2024-03-06T13:14:56;14.00;99.90
12438;DHT22;6283;51.330;12.374;2024-03-06T13:17:22;14.30;99.90
12438;DHT22;6283;51.330;12.374;2024-03-06T13:19:47;14.20;99.90
12438;DHT22;6283;51.330;12.374;2024-03-06T13:22:14;14.30;99.90
12438;DHT22;6283;51.330;12.374;2024-03-06T13:24:39;13.60;99.90
12438;DHT22;6283;51.330;12.374;2024-03-06T13:27:05;13.40;99.90
12438;DHT22;6283;51.330;12.374;2024-03-06T13:29:31;13.10;99.90
12438;DHT22;6283;51.330;12.374;2024-03-06T13:31:56;12.90;99.90
12438;DHT22;6283;51.330;12.374;2024-03-06T13:34:22;13.10;99.90
12438;DHT22;6283;51.330;12.374;2024-03-06T13:36:47;13.10;99.90
12438;DHT22;6283;51.330;12.374;2024-03-06T13:39:13;13.60;99.90
12438;DHT22;6283;51.330;12.374;2024-03-06T13:41:39;13.80;99.90
12438;DHT22;6283;51.330;12.374;2024-03-06T13:44:06;13.60;99.90
12438;DHT22;6283;51.330;12.374;2024-03-06T13:46:33;13.40;99.90
12438;DHT22;6283;51.330;12.374;2024-03-06T13:48:59;13.10;99.90
12438;DHT22;6283;51.330;12.374;2024-03-06T13:51:26;13.40;99.90
12438;DHT22;6283;51.330;12.374;2024-03-06T13:53:51;13.40;99.90
12438;DHT22;6283;51.330;12.374;2024-03-06T13:56:17;13.80;99.90
12438;DHT22;6283;51.330;12.374;2024-03-06T13:58:43;14.10;99.90
12438;DHT22;6283;51.330;12.374;2024-03-06T14:01:09;14.30;99.90
12438;DHT22;6283;51.330;12.374;2024-03-06T14:03:35;14.80;99.90
12438;DHT22;6283;51.330;12.374;2024-03-06T14:06:03;14.90;99.90
12438;DHT22;6283;51.330;12.374;2024-03-06T14:08:29;15.20;99.90
12438;DHT22;6283;51.330;12.374;2024-03-06T14:10:54;15.30;99.90
12438;DHT22;6283;51.330;12.374;2024-03-06T14:13:20;15.40;99.90
12438;DHT22;6283;51.330;12.374;2024-03-06T14:15:46;15.50;99.90
12438;DHT22;6283;51.330;12.374;2024-03-06T14:18:13;15.50;99.90
12438;DHT22;6283;51.330;12.374;2024-03-06T14:20:39;15.70;99.90
12438;DHT22;6283;51.330;12.374;2024-03-06T14:23:05;15.70;99.90
12438;DHT22;6283;51.330;12.374;2024-03-06T14:25:30;15.90;99.90
12438;DHT22;6283;51.330;12.374;2024-03-06T14:28:00;16.00;99.90
12438;DHT22;6283;51.330;12.374;2024-03-06T14:30:26;16.00;99.90
12438;DHT22;6283;51.330;12.374;2024-03-06T14:32:52;16.10;99.90
12438;DHT22;6283;51.330;12.374;2024-03-06T14:35:18;16.20;99.90
12438;DHT22;6283;51.330;12.374;2024-03-06T14:37:44;16.40;99.90
12438;DHT22;6283;51.330;12.374;2024-03-06T14:40:10;16.50;99.90
12438;DHT22;6283;51.330;12.374;2024-03-06T14:42:36;16.60;99.90
12438;DHT22;6283;51.330;12.374;2024-03-06T14:45:02;16.70;99.90
12438;DHT22;6283;51.330;12.374;2024-03-06T14:47:31;16.80;99.90
12438;DHT22;6283;51.330;12.374;2024-03-06T14:49:57;16.80;99.90
12438;DHT22;6283;51.330;12.374;2024-03-06T14:52:23;16.90;99.90
12438;DHT22;6283;51.330;12.374;2024-03-06T14:54:48;16.90;99.90
12438;DHT22;6283;51.330;12.374;2024-03-06T14:57:14;16.90;99.90
12438;DHT22;6283;51.330;12.374;2024-03-06T14:59:40;16.90;99.90
12438;DHT22;6283;51.330;12.374;2024-03-06T15:02:06;17.00;99.90
12438;DHT22;6283;51.330;12.374;2024-03-06T15:04:32;17.00;99.90
12438;DHT22;6283;51.330;12.374;2024-03-06T15:06:57;16.90;99.90
12438;DHT22;6283;51.330;12.374;2024-03-06T15:09:25;16.70;99.90
12438;DHT22;6283;51.330;12.374;2024-03-06T15:11:51;16.50;99.90
12438;DHT22;6283;51.330;12.374;2024-03-06T15:14:18;16.30;99.90
12438;DHT22;6283;51.330;12.374;2024-03-06T15:16:47;16.20;99.90
12438;DHT22;6283;51.330;12.374;2024-03-06T15:19:14;15.80;99.90
12438;DHT22;6283;51.330;12.374;2024-03-06T15:21:40;15.60;99.90
12438;DHT22;6283;51.330;12.374;2024-03-06T15:24:06;15.60;99.90
12438;DHT22;6283;51.330;12.374;2024-03-06T15:26:32;15.70;99.90
12438;DHT22;6283;51.330;12.374;2024-03-06T15:28:58;15.80;99.90
12438;DHT22;6283;51.330;12.374;2024-03-06T15:31:24;16.10;99.90
12438;DHT22;6283;51.330;12.374;2024-03-06T15:33:50;16.30;99.90
12438;DHT22;6283;51.330;12.374;2024-03-06T15:36:16;16.40;99.90
12438;DHT22;6283;51.330;12.374;2024-03-06T15:38:43;16.30;99.90
12438;DHT22;6283;51.330;12.374;2024-03-06T15:41:08;16.10;99.90
12438;DHT22;6283;51.330;12.374;2024-03-06T15:43:37;15.90;99.90
12438;DHT22;6283;51.330;12.374;2024-03-06T15:46:03;15.70;99.90
12438;DHT22;6283;51.330;12.374;2024-03-06T15:48:28;15.30;99.90
12438;DHT22;6283;51.330;12.374;2024-03-06T15:50:55;14.90;99.90
12438;DHT22;6283;51.330;12.374;2024-03-06T15:53:21;14.40;99.90
12438;DHT22;6283;51.330;12.374;2024-03-06T15:55:47;14.20;99.90
12438;DHT22;6283;51.330;12.374;2024-03-06T15:58:12;14.10;99.90
12438;DHT22;6283;51.330;12.374;2024-03-06T16:00:38;13.90;99.90
12438;DHT22;6283;51.330;12.374;2024-03-06T16:03:04;13.50;99.90
12438;DHT22;6283;51.330;12.374;2024-03-06T16:05:30;13.50;99.90
12438;DHT22;6283;51.330;12.374;2024-03-06T16:08:00;13.20;99.90
12438;DHT22;6283;51.330;12.374;2024-03-06T16:10:27;12.80;99.90
12438;DHT22;6283;51.330;12.374;2024-03-06T16:12:52;12.80;99.90
12438;DHT22;6283;51.330;12.374;2024-03-06T16:15:18;12.40;99.90
12438;DHT22;6283;51.330;12.374;2024-03-06T16:17:44;12.10;99.90